CW6020 Teulada ES current weather conditions

sailwx.info

Wind from 225 at 3 knots gusting 5

Air temperature 25.0° C
Dewpoint 16.9° C

Last reported at 2016-Jul-01 19:41 UTC.
Time now 2016-Jul-01 20:47 UTC

Location: N 38°44' E 000°06'.
View on Google Maps.

See reports from other nearby stations

  
Tides and Currents Weather Stations Pressure Air Temp Water Temp Dewpoint Dewpoint Depression Visibility Wind Speed Wind Dir Waves Ship Positions
date/time (UTC)wind fromknots sea level pressurealtimeterstation pressurevisibilityair tempwater tempwave heightnotes
2016-Jul-01 19:41 225 3 gusting 5 25.0
2016-Jul-01 19:31 225 2 gusting 4 25.0
2016-Jul-01 19:21 225 2 gusting 5 25.0
2016-Jul-01 19:11 225 4 gusting 6 25.6
2016-Jul-01 19:01 270 2 gusting 5 25.6
2016-Jul-01 18:51 225 2 gusting 5 25.6
2016-Jul-01 18:41 225 4 gusting 6 26.1
2016-Jul-01 18:31 180 4 gusting 6 26.1
2016-Jul-01 18:21 225 3 gusting 6 26.7
2016-Jul-01 18:11 225 2 gusting 5 27.2
2016-Jul-01 18:01 180 5 gusting 7 27.8
2016-Jul-01 17:51 225 2 gusting 4 27.8
2016-Jul-01 17:41 180 5 gusting 8 28.3
2016-Jul-01 17:31 28.3
2016-Jul-01 17:21 225 5 gusting 7 28.3
2016-Jul-01 17:11 225 4 gusting 6 27.8
2016-Jul-01 17:01 180 5 gusting 7 28.3
2016-Jul-01 16:51 180 5 gusting 7 28.3
2016-Jul-01 16:41 337 5 gusting 8 28.3
2016-Jul-01 16:29 225 5 gusting 10 28.9
2016-Jul-01 16:16 225 5 gusting 9 28.9
2016-Jul-01 16:06 225 3 gusting 5 28.9
2016-Jul-01 15:56 270 5 gusting 7 28.9
2016-Jul-01 15:46 180 3 gusting 7 28.9
2016-Jul-01 15:36 157 5 gusting 9 28.9
2016-Jul-01 15:26 135 5 gusting 7 28.9
2016-Jul-01 15:16 090 6 gusting 11 28.9
2016-Jul-01 15:06 180 7 gusting 13 29.4
2016-Jul-01 14:56 180 6 gusting 10 29.4
2016-Jul-01 14:46 090 7 gusting 12 30.0
2016-Jul-01 14:36 090 5 gusting 9 30.0
2016-Jul-01 14:26 270 5 gusting 9 30.0
2016-Jul-01 14:16 135 4 gusting 8 30.0
2016-Jul-01 14:06 247 6 gusting 8 30.0
2016-Jul-01 13:56 225 4 gusting 7 30.0
2016-Jul-01 13:46 225 4 gusting 8 30.0
2016-Jul-01 13:36 225 5 gusting 7 30.0
2016-Jul-01 13:26 135 4 gusting 8 30.0
2016-Jul-01 13:16 135 6 gusting 8 30.0
2016-Jul-01 13:06 180 5 gusting 10 30.0
2016-Jul-01 12:56 135 5 gusting 7 29.4
2016-Jul-01 12:46 180 5 gusting 7 29.4
2016-Jul-01 12:36 135 4 gusting 6 29.4
2016-Jul-01 12:26 225 3 gusting 6 29.4
2016-Jul-01 12:16 225 5 gusting 7 29.4
2016-Jul-01 12:06 315 5 gusting 7 29.4
2016-Jul-01 11:56 225 2 gusting 3 29.4
2016-Jul-01 11:46 225 2 gusting 5 29.4
2016-Jul-01 11:36 180 3 gusting 9 29.4
2016-Jul-01 11:26 090 2 gusting 5 28.9
2016-Jul-01 11:16 135 5 gusting 8 29.4
2016-Jul-01 11:06 135 2 gusting 5 28.9
2016-Jul-01 10:56 135 5 gusting 8 28.9
2016-Jul-01 10:46 135 2 gusting 5 28.9
2016-Jul-01 10:36 135 1 gusting 3 28.9
2016-Jul-01 10:26 135 2 gusting 5 28.9
2016-Jul-01 10:16 225 1 gusting 2 28.9
2016-Jul-01 10:06 225 2 gusting 4 28.3
2016-Jul-01 09:56 135 1 gusting 2 28.3
2016-Jul-01 09:46 135 5 gusting 8 28.3
2016-Jul-01 09:36 180 2 gusting 4 27.8
2016-Jul-01 09:26 180 2 gusting 5 27.8
2016-Jul-01 09:16 180 3 gusting 5 28.3
2016-Jul-01 09:06 180 2 gusting 5 27.8
2016-Jul-01 08:56 135 2 gusting 4 27.8
2016-Jul-01 08:46 225 1 gusting 2 27.2
2016-Jul-01 08:36 135 27.2
2016-Jul-01 08:26 135 1 gusting 2 26.7
2016-Jul-01 08:16 225 0 gusting 2 26.1
2016-Jul-01 08:06 25.6
2016-Jul-01 07:56 225 25.0
2016-Jul-01 07:46 25.0
2016-Jul-01 07:36 045 24.4
2016-Jul-01 07:26 045 23.3
2016-Jul-01 07:16 22.8
2016-Jul-01 07:06 22.2
2016-Jul-01 06:56 21.7
2016-Jul-01 06:46 045 1 gusting 2 21.7
2016-Jul-01 06:36 225 20.6
2016-Jul-01 06:26 20.0
2016-Jul-01 06:16 20.0
2016-Jul-01 06:06 19.4
2016-Jul-01 05:56 225 19.4
2016-Jul-01 05:46 18.9
2016-Jul-01 05:36 18.9
2016-Jul-01 05:26 18.9
2016-Jul-01 05:16 18.9
2016-Jul-01 05:06 19.4
2016-Jul-01 04:56 19.4
2016-Jul-01 04:46 225 19.4
2016-Jul-01 04:36 19.4
2016-Jul-01 04:26 225 19.4
2016-Jul-01 04:16 20.0
2016-Jul-01 04:06 20.0
2016-Jul-01 03:56 20.0
2016-Jul-01 03:46 20.0
2016-Jul-01 03:36 225 20.0
2016-Jul-01 03:26 20.6
2016-Jul-01 03:16 20.6
2016-Jul-01 03:06 20.6
2016-Jul-01 02:56 20.6
2016-Jul-01 02:46 20.6
2016-Jul-01 02:36 20.6
2016-Jul-01 02:26 21.1
2016-Jul-01 02:16 21.1
2016-Jul-01 02:06 21.1
2016-Jul-01 01:56 21.1
2016-Jul-01 01:46 21.1
2016-Jul-01 01:36 21.1
2016-Jul-01 01:26 21.7
2016-Jul-01 01:16 21.7
2016-Jul-01 01:06 21.7
2016-Jul-01 00:56 21.7
2016-Jul-01 00:46 21.7
2016-Jul-01 00:36 225 21.7
2016-Jul-01 00:26 22.2
2016-Jul-01 00:16 22.2
2016-Jul-01 00:06 22.2
2016-Jun-30 23:56 22.2
2016-Jun-30 23:46 225 0 gusting 2 22.8
2016-Jun-30 23:36 22.8
2016-Jun-30 23:26 22.8
2016-Jun-30 23:16 22.8
2016-Jun-30 23:06 045 0 gusting 1 22.8
2016-Jun-30 22:56 22.8
2016-Jun-30 22:46 22.8
2016-Jun-30 22:36 22.8
2016-Jun-30 22:26 135 22.8
2016-Jun-30 22:16 135 22.8
2016-Jun-30 22:06 135 22.8
2016-Jun-30 21:56 135 23.3
2016-Jun-30 21:46 23.3
2016-Jun-30 21:36 23.9
2016-Jun-30 21:26 23.9
2016-Jun-30 21:16 23.9
2016-Jun-30 21:06 135 0 gusting 1 23.9
2016-Jun-30 20:56 135 23.9
2016-Jun-30 20:46 24.4
2016-Jun-30 20:36 135 24.4
2016-Jun-30 20:26 135 24.4
2016-Jun-30 20:16 225 2 gusting 2 25.0
2016-Jun-30 20:06 225 0 gusting 2 25.0
2016-Jun-30 19:56 225 0 gusting 1 25.0
2016-Jun-30 19:46 135 2 gusting 5 25.6
2016-Jun-30 19:36 180 1 gusting 3 25.6
2016-Jun-30 19:26 225 0 gusting 2 26.1
2016-Jun-30 19:16 26.1
2016-Jun-30 19:06 225 1 gusting 3 26.7
2016-Jun-30 18:56 225 2 gusting 3 26.7
2016-Jun-30 18:46 135 5 gusting 9 27.2
2016-Jun-30 18:36 135 2 gusting 5 27.8
2016-Jun-30 18:26 135 5 gusting 6 27.8
2016-Jun-30 18:16 180 2 gusting 5 27.8
2016-Jun-30 18:06 225 1 gusting 2 27.8
2016-Jun-30 17:56 180 4 gusting 7 28.3
2016-Jun-30 17:46 225 2 gusting 4 28.3
2016-Jun-30 17:36 180 1 gusting 4 28.3
2016-Jun-30 17:26 225 2 gusting 5 28.3
2016-Jun-30 17:16 180 4 gusting 5 28.3
2016-Jun-30 17:06 135 2 gusting 4 28.9
2016-Jun-30 16:56 045 2 gusting 5 28.9
2016-Jun-30 16:46 135 4 gusting 6 29.4
2016-Jun-30 16:36 180 6 gusting 9 30.0
2016-Jun-30 16:23 135 3 gusting 6 30.6
2016-Jun-30 16:11 180 4 gusting 6 31.1
2016-Jun-30 16:01 180 5 gusting 12 31.1
2016-Jun-30 15:51 180 6 gusting 12 31.1
2016-Jun-30 15:41 135 3 gusting 5 30.6
2016-Jun-30 15:31 225 5 gusting 9 30.6
2016-Jun-30 15:21 315 5 gusting 9 30.6
2016-Jun-30 15:11 090 6 gusting 12 31.1
2016-Jun-30 15:01 090 6 gusting 10 31.1
2016-Jun-30 14:51 225 5 gusting 9 30.6
2016-Jun-30 14:41 30.6
2016-Jun-30 14:32 225 6 gusting 10 31.1
2016-Jun-30 14:21 225 5 gusting 7 31.1
2016-Jun-30 14:11 180 4 gusting 6 31.1
2016-Jun-30 14:01 202 6 gusting 9 31.1
2016-Jun-30 13:51 135 2 gusting 4 31.7
2016-Jun-30 13:41 180 4 gusting 7 31.1
2016-Jun-30 13:31 180 3 gusting 5 31.1
2016-Jun-30 13:21 225 2 gusting 5 31.1
2016-Jun-30 13:11 135 4 gusting 6 31.1
2016-Jun-30 13:01 180 5 gusting 6 31.1
2016-Jun-30 12:51 202 4 gusting 7 31.1
2016-Jun-30 12:41 180 4 gusting 5 30.6
2016-Jun-30 12:31 225 6 gusting 8 30.6
2016-Jun-30 12:21 135 4 gusting 5 30.0
2016-Jun-30 12:11 225 3 gusting 6 30.0
2016-Jun-30 12:01 135 3 gusting 7 30.0
2016-Jun-30 11:51 225 2 gusting 6 30.0
2016-Jun-30 11:41 135 3 gusting 5 30.0
2016-Jun-30 11:31 315 3 gusting 5 30.0
2016-Jun-30 11:21 112 4 gusting 6 30.0
2016-Jun-30 11:11 180 2 gusting 5 29.4
2016-Jun-30 11:01 135 3 gusting 6 29.4
2016-Jun-30 10:51 180 2 gusting 5 28.9
2016-Jun-30 10:41 135 3 gusting 6 28.9
2016-Jun-30 10:31 135 5 gusting 7 28.9
2016-Jun-30 10:21 135 2 gusting 5 28.3
2016-Jun-30 10:11 135 2 gusting 4 28.3
2016-Jun-30 10:01 135 2 gusting 4 28.3
2016-Jun-30 09:51 180 2 gusting 5 27.8
2016-Jun-30 09:41 135 1 gusting 2 27.8
2016-Jun-30 09:31 135 1 gusting 2 27.2
2016-Jun-30 09:21 135 3 gusting 6 27.2
2016-Jun-30 09:11 135 5 gusting 6 27.2
2016-Jun-30 09:01 225 2 gusting 5 26.7
2016-Jun-30 08:51 135 2 gusting 6 26.7
2016-Jun-30 08:41 135 1 gusting 2 26.7
2016-Jun-30 08:31 157 1 gusting 2 26.7
2016-Jun-30 08:21 180 3 gusting 5 26.1
2016-Jun-30 08:11 135 1 gusting 3 25.6
2016-Jun-30 08:01 180 3 gusting 6 25.6
2016-Jun-30 07:51 225 2 gusting 3 25.0
2016-Jun-30 07:41 24.4
2016-Jun-30 07:31 135 1 gusting 2 23.9
2016-Jun-30 07:21 135 2 gusting 4 23.9
2016-Jun-30 07:11 225 4 gusting 6 23.3
2016-Jun-30 07:01 247 3 gusting 6 22.8
2016-Jun-30 06:51 135 3 gusting 5 22.8
2016-Jun-30 06:41 225 2 gusting 5 22.2
2016-Jun-30 06:31 135 1 gusting 2 21.7
2016-Jun-30 06:21 270 0 gusting 2 21.7
2016-Jun-30 06:11 270 1 gusting 3 21.1
2016-Jun-30 06:01 20.6
2016-Jun-30 05:51 20.6
2016-Jun-30 05:41 20.6
2016-Jun-30 05:31 20.6
2016-Jun-30 05:21 20.6
2016-Jun-30 05:11 20.6
2016-Jun-30 05:01 20.6
2016-Jun-30 04:51 20.6
2016-Jun-30 04:41 20.6
2016-Jun-30 04:31 090 20.6
2016-Jun-30 04:21 090 20.6
2016-Jun-30 04:11 090 20.6
2016-Jun-30 04:01 20.6
2016-Jun-30 03:51 090 20.6
2016-Jun-30 03:41 090 20.6
2016-Jun-30 03:31 20.6
2016-Jun-30 03:21 20.6
2016-Jun-30 03:11 090 21.1
2016-Jun-30 03:01 21.1
2016-Jun-30 02:51 21.1
2016-Jun-30 02:41 21.1
2016-Jun-30 02:31 21.1
2016-Jun-30 02:21 21.7
2016-Jun-30 02:11 21.7
2016-Jun-30 02:01 21.7
2016-Jun-30 01:51 21.7
2016-Jun-30 01:41 21.7
2016-Jun-30 01:31 22.2
2016-Jun-30 01:21 22.2
2016-Jun-30 01:11 22.2
2016-Jun-30 01:01 22.2
2016-Jun-30 00:51 22.2
2016-Jun-30 00:41 090 22.2
2016-Jun-30 00:31 090 0 gusting 1 22.2
2016-Jun-30 00:21 090 22.2
2016-Jun-30 00:11 22.2
2016-Jun-30 00:01 22.2
2016-Jun-29 23:51 22.8
2016-Jun-29 23:41 22.8
2016-Jun-29 23:31 22.8
2016-Jun-29 23:21 22.8
2016-Jun-29 23:11 22.8
2016-Jun-29 23:01 22.8
2016-Jun-29 22:51 22.8
2016-Jun-29 22:41 22.8
2016-Jun-29 22:31 23.3
2016-Jun-29 22:21 23.3
2016-Jun-29 22:11 23.3
2016-Jun-29 22:01 23.3
2016-Jun-29 21:51 225 23.3
2016-Jun-29 21:41 23.9
2016-Jun-29 21:31 23.9
2016-Jun-29 21:21 23.9
2016-Jun-29 21:11 23.9
2016-Jun-29 21:01 23.9
2016-Jun-29 20:51 23.9
2016-Jun-29 20:41 23.9
2016-Jun-29 20:31 23.9
2016-Jun-29 20:21 225 23.9
2016-Jun-29 20:11 225 0 gusting 1 24.4
2016-Jun-29 20:01 225 24.4